Time;durP1;ratioP1;P1;durP2;ratioP2;P2;SDS_P1;SDS_P2;PMS_P1;PMS_P2;Temp;Humidity;BMP_temperature;BMP_pressure;BME280_temperature;BME280_humidity;BME280_pressure;Samples;Min_cycle;Max_cycle;Signal;HPM_P1;HPM_P2
2022/01/23 00:02:17;;;;;;;13.32;9.32;;;;;;;8.08;100.00;100961.59;4917325;29;20096;-87
2022/01/23 00:04:43;;;;;;;14.25;9.35;;;;;;;8.05;100.00;100957.44;4915313;29;20044;-87
2022/01/23 00:07:12;;;;;;;14.50;9.25;;;;;;;8.08;100.00;100967.66;4916846;29;20050;-87
2022/01/23 00:09:39;;;;;;;13.38;8.57;;;;;;;8.13;100.00;100965.50;4911242;29;20024;-85
2022/01/23 00:12:10;;;;;;;14.65;9.40;;;;;;;8.18;100.00;100956.41;4918100;29;20039;-86
2022/01/23 00:17:20;;;;;;;13.75;9.10;;;;;;;8.25;100.00;100968.00;4916829;29;20447;-85
2022/01/23 00:19:49;;;;;;;12.68;8.65;;;;;;;8.31;100.00;100962.25;4917656;29;20032;-87
2022/01/23 00:22:15;;;;;;;14.07;8.55;;;;;;;8.26;100.00;100954.78;4918063;29;20059;-87
2022/01/23 00:32:58;;;;;;;15.95;9.32;;;;;;;8.31;100.00;100964.88;4916794;29;20389;-87
2022/01/23 00:35:24;;;;;;;12.48;9.25;;;;;;;8.27;100.00;100953.03;4901345;29;20111;-87
2022/01/23 00:37:50;;;;;;;11.88;8.93;;;;;;;8.27;100.00;100942.56;4917591;29;20061;-86
2022/01/23 00:40:16;;;;;;;15.15;10.80;;;;;;;8.34;100.00;100956.75;4916104;29;20508;-85
2022/01/23 00:42:43;;;;;;;14.75;9.75;;;;;;;8.38;100.00;100954.72;4916701;29;20036;-86
2022/01/23 00:48:04;;;;;;;13.65;8.77;;;;;;;8.36;100.00;100952.22;4916708;29;20042;-85
2022/01/23 00:50:34;;;;;;;13.05;8.40;;;;;;;8.34;100.00;100946.28;4918460;29;20048;-85
2022/01/23 00:53:01;;;;;;;14.27;8.77;;;;;;;8.33;100.00;100944.63;4900101;29;20036;-86
2022/01/23 00:55:27;;;;;;;12.15;9.07;;;;;;;8.34;100.00;100940.22;4917537;29;20099;-87
2022/01/23 00:57:54;;;;;;;13.35;8.90;;;;;;;8.29;100.00;100938.00;4919944;29;20044;-86
2022/01/23 01:00:20;;;;;;;12.48;10.15;;;;;;;8.36;100.00;100943.56;4919298;29;20135;-87
2022/01/23 01:02:47;;;;;;;11.82;8.93;;;;;;;8.39;100.00;100949.31;4919958;29;20083;-87
2022/01/23 01:05:13;;;;;;;13.90;9.32;;;;;;;8.42;100.00;100948.25;4918713;29;20047;-87
2022/01/23 01:07:39;;;;;;;12.90;8.70;;;;;;;8.42;100.00;100945.63;4903602;29;20040;-87
2022/01/23 01:10:11;;;;;;;12.90;8.55;;;;;;;8.46;100.00;100947.00;4917091;29;20035;-87
2022/01/23 01:12:45;;;;;;;11.82;8.00;;;;;;;8.44;100.00;100946.31;4917730;29;20036;-86
2022/01/23 01:33:57;;;;;;;12.77;9.40;;;;;;;8.48;100.00;100920.72;4908129;29;20036;-87
2022/01/23 01:36:30;;;;;;;11.85;8.13;;;;;;;8.32;100.00;100927.28;4913668;29;20036;-87
2022/01/23 01:38:56;;;;;;;9.20;6.80;;;;;;;8.35;100.00;100926.16;4917075;29;20494;-88
2022/01/23 01:41:23;;;;;;;8.40;6.35;;;;;;;8.31;100.00;100919.56;4914594;29;20436;-89
2022/01/23 01:43:51;;;;;;;8.15;6.70;;;;;;;8.32;100.00;100916.81;4915292;29;20028;-87
2022/01/23 01:46:18;;;;;;;8.40;6.18;;;;;;;8.40;100.00;100926.63;4898286;29;20483;-87
2022/01/23 01:48:44;;;;;;;7.60;5.95;;;;;;;8.36;100.00;100920.81;4910664;29;20087;-86
2022/01/23 01:51:15;;;;;;;7.22;5.63;;;;;;;8.27;100.00;100919.00;4915448;29;20376;-86
2022/01/23 01:53:48;;;;;;;7.32;5.57;;;;;;;8.37;100.00;100929.50;4915023;29;20099;-88
2022/01/23 01:56:14;;;;;;;5.50;4.72;;;;;;;8.33;100.00;100925.47;4900599;29;20044;-86
2022/01/23 02:02:46;;;;;;;5.53;4.28;;;;;;;8.21;100.00;100914.28;4915723;29;20036;-85
2022/01/23 02:09:25;;;;;;;4.88;3.90;;;;;;;8.28;100.00;100925.91;4914758;29;20040;-85
2022/01/23 02:23:52;;;;;;;3.60;2.30;;;;;;;8.05;100.00;100906.94;4918457;29;20509;-88
2022/01/23 02:55:48;;;;;;;1.25;1.10;;;;;;;7.84;100.00;100892.13;4917492;29;20032;-88
2022/01/23 02:58:20;;;;;;;1.58;1.40;;;;;;;7.77;100.00;100881.38;4900376;29;20457;-88
2022/01/23 03:00:49;;;;;;;1.53;1.30;;;;;;;8.10;100.00;100882.06;4900072;29;20043;-88
2022/01/23 03:03:22;;;;;;;2.83;1.48;;;;;;;8.09;100.00;100874.31;4901914;29;20115;-87
2022/01/23 03:06:09;;;;;;;2.42;2.00;;;;;;;7.97;100.00;100870.97;4902585;29;20391;-87
2022/01/23 03:24:59;;;;;;;4.97;3.17;;;;;;;8.03;100.00;100875.69;4914973;29;20032;-87
2022/01/23 03:27:54;;;;;;;4.10;3.05;;;;;;;8.04;100.00;100879.94;4898475;29;20040;-87
2022/01/23 03:32:44;;;;;;;4.88;3.15;;;;;;;8.09;100.00;100874.31;4916671;29;20112;-87
2022/01/23 03:35:10;;;;;;;6.05;3.72;;;;;;;7.99;100.00;100864.69;4917106;29;20044;-87
2022/01/23 03:37:36;;;;;;;5.30;3.55;;;;;;;7.97;100.00;100865.75;4912965;29;20390;-87
2022/01/23 03:40:04;;;;;;;5.47;3.35;;;;;;;8.08;100.00;100873.50;4920183;29;20550;-87
2022/01/23 03:42:32;;;;;;;5.00;3.70;;;;;;;8.04;100.00;100858.22;4903718;29;20044;-87
2022/01/23 03:47:41;;;;;;;8.13;4.50;;;;;;;7.94;100.00;100850.34;4919675;29;20499;-89
2022/01/23 03:50:11;;;;;;;6.75;4.35;;;;;;;7.98;100.00;100863.03;4919851;29;20043;-87
2022/01/23 03:52:39;;;;;;;6.43;4.60;;;;;;;7.88;100.00;100850.88;4904567;29;20032;-88
2022/01/23 03:55:06;;;;;;;7.05;4.68;;;;;;;7.90;100.00;100846.34;4921010;29;20545;-87
2022/01/23 03:57:32;;;;;;;9.77;4.90;;;;;;;7.95;100.00;100855.41;4919861;29;20039;-88
2022/01/23 03:59:58;;;;;;;7.88;5.38;;;;;;;7.89;100.00;100840.25;4904203;29;20032;-87
2022/01/23 04:02:24;;;;;;;8.98;5.75;;;;;;;7.83;100.00;100846.84;4904150;29;20063;-88
2022/01/23 04:04:49;;;;;;;7.93;4.68;;;;;;;7.81;100.00;100840.91;4903744;29;20048;-88
2022/01/23 04:07:22;;;;;;;8.40;5.90;;;;;;;7.81;100.00;100846.16;4921489;29;20032;-89
2022/01/23 04:09:49;;;;;;;9.10;6.40;;;;;;;7.76;100.00;100850.94;4902906;29;20067;-88
2022/01/23 04:12:30;;;;;;;10.55;6.32;;;;;;;7.73;100.00;100848.59;4904131;29;20123;-88
2022/01/23 04:15:08;;;;;;;9.80;6.03;;;;;;;7.76;100.00;100845.72;4903875;29;20036;-88
2022/01/23 04:20:34;;;;;;;10.00;6.90;;;;;;;7.78;100.00;100838.56;4919994;29;20028;-88
2022/01/23 04:34:10;;;;;;;11.27;6.63;;;;;;;7.76;100.00;100848.34;4918918;29;20367;-87
2022/01/23 05:01:06;;;;;;;6.20;4.22;;;;;;;7.65;100.00;100851.03;4917039;29;20032;-86
2022/01/23 05:06:07;;;;;;;6.32;4.13;;;;;;;7.70;100.00;100849.69;4917719;29;20072;-86
2022/01/23 05:08:35;;;;;;;6.40;4.07;;;;;;;7.58;100.00;100837.69;4916200;29;20027;-87
2022/01/23 05:11:02;;;;;;;7.95;3.90;;;;;;;7.61;100.00;100844.41;4901279;29;20388;-87
2022/01/23 05:13:30;;;;;;;6.65;4.47;;;;;;;7.56;100.00;100840.41;4918590;29;20475;-87
2022/01/23 05:15:56;;;;;;;6.97;4.65;;;;;;;7.62;100.00;100846.06;4902385;29;20112;-86
2022/01/23 05:18:23;;;;;;;6.68;4.35;;;;;;;7.74;100.00;100850.25;4902584;29;20443;-87
2022/01/23 05:20:56;;;;;;;7.22;4.95;;;;;;;7.72;100.00;100839.09;4917352;29;20034;-89
2022/01/23 05:23:22;;;;;;;6.22;4.22;;;;;;;7.75;100.00;100831.00;4912574;29;20111;-88
2022/01/23 05:25:47;;;;;;;8.00;5.05;;;;;;;7.84;100.00;100837.22;4916761;29;20378;-85
2022/01/23 05:28:13;;;;;;;5.85;4.15;;;;;;;7.84;100.00;100834.63;4914046;29;20046;-89
2022/01/23 05:30:40;;;;;;;6.28;4.10;;;;;;;7.91;100.00;100846.19;4918882;29;20032;-89
2022/01/23 05:33:06;;;;;;;4.80;3.55;;;;;;;7.67;100.00;100843.91;4918921;29;20038;-88
2022/01/23 05:35:31;;;;;;;4.38;3.25;;;;;;;7.70;100.00;100833.19;4901027;29;20028;-89
2022/01/23 05:37:57;;;;;;;5.85;3.88;;;;;;;7.70;100.00;100820.94;4901561;29;20427;-86
2022/01/23 05:40:26;;;;;;;8.60;3.42;;;;;;;7.73;100.00;100832.91;4916245;29;20793;-88
2022/01/23 05:42:52;;;;;;;4.60;3.20;;;;;;;7.67;100.00;100836.88;4917090;29;20064;-89
2022/01/23 05:45:19;;;;;;;4.93;3.33;;;;;;;7.82;100.00;100847.81;4917349;29;20056;-87
2022/01/23 05:47:45;;;;;;;6.18;4.07;;;;;;;7.83;100.00;100841.63;4915679;29;20028;-86
2022/01/23 05:50:10;;;;;;;5.60;3.75;;;;;;;7.80;100.00;100828.81;4917094;29;20055;-87
2022/01/23 05:52:36;;;;;;;6.70;3.50;;;;;;;7.91;100.00;100853.22;4916179;29;20485;-87
2022/01/23 05:55:06;;;;;;;5.20;3.40;;;;;;;7.82;100.00;100837.34;4898986;29;20032;-89
2022/01/23 05:57:34;;;;;;;5.43;3.75;;;;;;;7.75;100.00;100845.84;4917243;29;20032;-88
2022/01/23 05:59:59;;;;;;;6.43;4.90;;;;;;;7.80;100.00;100844.50;4901468;29;20043;-88
2022/01/23 06:04:04;;;;;;;;;;;;;;;;;;;;;
2022/01/23 06:10:27;;;;;;;16.63;11.00;;;;;;;7.60;100.00;100822.69;4921749;29;20491;-90
2022/01/23 06:12:53;;;;;;;18.17;12.00;;;;;;;7.73;100.00;100848.59;4907643;29;20055;-87
2022/01/23 06:15:20;;;;;;;18.58;13.05;;;;;;;7.68;100.00;100856.03;4929220;29;20043;-87
2022/01/23 06:17:46;;;;;;;21.38;13.25;;;;;;;7.70;100.00;100857.53;4906093;29;20031;-89
2022/01/23 06:20:13;;;;;;;22.10;13.80;;;;;;;7.54;100.00;100839.72;4919990;29;20038;-89
2022/01/23 06:22:43;;;;;;;24.55;14.85;;;;;;;7.50;100.00;100855.78;4905099;29;20118;-87
2022/01/23 06:25:11;;;;;;;24.60;15.77;;;;;;;7.50;100.00;100854.00;4926104;29;20034;-87
2022/01/23 06:27:38;;;;;;;22.52;14.20;;;;;;;7.62;100.00;100857.38;4920435;29;20039;-88
2022/01/23 06:30:10;;;;;;;22.70;14.02;;;;;;;7.62;100.00;100846.06;4923252;29;20036;-87
2022/01/23 06:32:35;;;;;;;24.27;15.00;;;;;;;7.63;100.00;100851.19;4908377;29;20031;-87
2022/01/23 06:35:01;;;;;;;22.58;15.20;;;;;;;7.66;100.00;100852.69;4920769;29;20035;-88
2022/01/23 06:37:27;;;;;;;27.63;14.65;;;;;;;7.70;100.00;100852.28;4927088;29;20086;-88
2022/01/23 06:39:52;;;;;;;23.25;14.82;;;;;;;7.72;100.00;100860.03;4921803;29;20039;-91
2022/01/23 06:42:18;;;;;;;22.08;14.43;;;;;;;7.73;100.00;100853.84;4915783;29;20493;-86
2022/01/23 06:44:44;;;;;;;25.83;16.75;;;;;;;7.73;100.00;100846.00;4904941;29;20041;-86
2022/01/23 06:47:10;;;;;;;30.65;15.77;;;;;;;7.74;100.00;100850.25;4925367;29;20037;-87
2022/01/23 06:49:36;;;;;;;23.40;15.95;;;;;;;7.71;100.00;100840.06;4903344;29;20460;-87
2022/01/23 06:52:02;;;;;;;22.77;15.05;;;;;;;7.74;100.00;100852.88;4919395;29;20114;-87
2022/01/23 06:54:28;;;;;;;28.17;17.00;;;;;;;7.72;100.00;100852.19;4914071;29;20046;-88
2022/01/23 06:56:55;;;;;;;27.02;15.70;;;;;;;7.83;100.00;100869.56;4946450;29;20166;-87
2022/01/23 06:59:24;;;;;;;26.55;16.73;;;;;;;7.81;100.00;100854.00;4921670;29;20058;-88
2022/01/23 07:01:49;;;;;;;24.15;16.25;;;;;;;7.92;100.00;100875.78;4914609;29;20063;-89
2022/01/23 07:04:15;;;;;;;23.80;15.77;;;;;;;7.93;100.00;100869.59;4915345;29;20035;-88
2022/01/23 07:06:40;;;;;;;26.90;16.88;;;;;;;7.89;100.00;100858.56;4929706;29;20157;-89
2022/01/23 07:09:09;;;;;;;26.33;15.90;;;;;;;7.85;100.00;100873.69;4927737;29;20372;-89
2022/01/23 07:11:35;;;;;;;20.60;13.27;;;;;;;7.65;100.00;100866.72;4925762;29;20035;-89
2022/01/23 07:14:01;;;;;;;24.85;14.32;;;;;;;7.57;100.00;100873.44;4927970;29;20034;-89
2022/01/23 07:16:27;;;;;;;23.35;14.35;;;;;;;7.54;100.00;100863.22;4926706;29;20031;-88
2022/01/23 07:18:53;;;;;;;22.25;14.23;;;;;;;7.46;100.00;100860.41;4929239;29;20043;-88
2022/01/23 07:21:19;;;;;;;18.17;12.45;;;;;;;7.50;100.00;100869.69;4921702;29;20027;-89
2022/01/23 07:23:53;;;;;;;20.92;13.02;;;;;;;7.52;100.00;100873.00;4914396;29;20131;-89
2022/01/23 07:26:25;;;;;;;20.25;12.45;;;;;;;7.46;100.00;100855.19;4914611;29;20047;-88
2022/01/23 07:28:53;;;;;;;21.75;12.98;;;;;;;7.57;100.00;100873.44;4930354;29;20024;-88
2022/01/23 07:34:04;;;;;;;18.67;12.35;;;;;;;7.62;100.00;100857.38;4948986;29;20034;-89
2022/01/23 07:36:30;;;;;;;18.95;11.95;;;;;;;7.38;100.00;100849.78;4930657;29;20043;-88
2022/01/23 07:38:56;;;;;;;18.48;12.20;;;;;;;7.50;100.00;100868.84;4920104;29;20039;-88
2022/01/23 07:41:22;;;;;;;17.67;11.75;;;;;;;7.56;100.00;100874.38;4918236;29;20036;-88
2022/01/23 07:43:48;;;;;;;19.58;12.10;;;;;;;7.64;100.00;100870.28;4936338;29;20510;-88
2022/01/23 07:46:14;;;;;;;20.30;12.50;;;;;;;7.67;100.00;100872.66;4934071;29;20119;-88
2022/01/23 07:48:40;;;;;;;17.45;11.52;;;;;;;7.74;100.00;100878.16;4931751;29;20038;-88
2022/01/23 07:51:05;;;;;;;19.20;12.23;;;;;;;7.75;100.00;100872.81;4947395;29;20107;-87
2022/01/23 07:53:31;;;;;;;19.42;12.82;;;;;;;7.73;100.00;100864.28;4907917;29;20031;-88
2022/01/23 07:55:56;;;;;;;18.60;11.57;;;;;;;7.81;100.00;100884.56;4909557;29;20031;-89
2022/01/23 07:58:22;;;;;;;16.20;11.60;;;;;;;7.77;100.00;100875.31;4913262;29;20390;-87
2022/01/23 08:00:48;;;;;;;15.25;10.85;;;;;;;7.86;100.00;100879.75;4948490;28;20023;-87
2022/01/23 08:03:14;;;;;;;17.30;11.85;;;;;;;7.82;100.00;100873.94;4952732;29;20041;-89
2022/01/23 08:05:40;;;;;;;17.83;11.55;;;;;;;7.80;100.00;100873.25;4915301;29;20114;-87
2022/01/23 08:08:05;;;;;;;15.63;10.48;;;;;;;7.73;100.00;100864.28;4938124;29;20023;-89
2022/01/23 08:10:32;;;;;;;16.00;11.48;;;;;;;7.77;100.00;100870.91;4937096;29;20044;-89
2022/01/23 08:12:58;;;;;;;13.63;9.57;;;;;;;7.77;100.00;100873.53;4933584;29;20149;-89
2022/01/23 08:15:24;;;;;;;14.13;10.00;;;;;;;7.81;100.00;100867.06;4947345;29;20052;-90
2022/01/23 08:17:50;;;;;;;17.23;11.48;;;;;;;7.88;100.00;100877.84;4915751;29;20042;-89
2022/01/23 08:20:15;;;;;;;16.33;11.13;;;;;;;7.88;100.00;100872.59;4932003;29;20420;-87
2022/01/23 08:22:41;;;;;;;18.52;12.45;;;;;;;7.82;100.00;100863.50;4952102;29;20090;-85
2022/01/23 08:25:07;;;;;;;19.30;12.57;;;;;;;7.83;100.00;100853.88;4931646;29;20082;-86
2022/01/23 08:27:35;;;;;;;19.83;13.93;;;;;;;7.72;100.00;100862.63;4929013;29;20155;-88
2022/01/23 08:30:02;;;;;;;21.60;13.93;;;;;;;7.78;100.00;100861.28;4911271;29;20477;-88
2022/01/23 08:32:28;;;;;;;26.98;16.67;;;;;;;7.77;100.00;100855.22;4933603;29;20043;-85
2022/01/23 08:34:54;;;;;;;25.85;16.70;;;;;;;7.86;100.00;100866.69;4945390;29;20027;-88
2022/01/23 08:37:27;;;;;;;25.35;16.50;;;;;;;7.88;100.00;100866.56;4915904;29;20042;-90
2022/01/23 08:39:56;;;;;;;23.30;14.95;;;;;;;7.79;100.00;100858.53;4953685;29;20485;-89
2022/01/23 08:42:21;;;;;;;26.27;15.02;;;;;;;7.80;100.00;100854.13;4929478;29;20038;-89
2022/01/23 08:44:48;;;;;;;27.00;17.88;;;;;;;7.71;100.00;100860.97;4935806;29;20031;-90
2022/01/23 08:47:15;;;;;;;29.65;17.38;;;;;;;7.64;100.00;100865.06;4914830;29;20039;-89
2022/01/23 08:49:46;;;;;;;28.08;17.23;;;;;;;7.70;100.00;100873.22;4917405;29;20039;-90
2022/01/23 08:52:17;;;;;;;25.20;15.30;;;;;;;7.66;100.00;100860.53;4933762;29;20027;-90
2022/01/23 08:54:50;;;;;;;28.77;17.48;;;;;;;7.79;100.00;100857.72;4935654;29;20039;-89
2022/01/23 08:57:17;;;;;;;26.57;16.47;;;;;;;7.81;100.00;100858.41;4931354;29;20102;-89
2022/01/23 08:59:43;;;;;;;22.95;13.77;;;;;;;7.79;100.00;100855.91;4931312;29;20045;-89
2022/01/23 09:02:09;;;;;;;26.00;14.20;;;;;;;7.80;100.00;100860.19;4931052;29;20103;-89
2022/01/23 09:04:35;;;;;;;18.80;12.60;;;;;;;7.67;100.00;100852.56;4925466;29;20062;-89
2022/01/23 09:07:01;;;;;;;19.23;12.60;;;;;;;7.66;100.00;100850.06;4927316;29;20042;-89
2022/01/23 09:09:31;;;;;;;16.13;10.98;;;;;;;7.63;100.00;100852.94;4917624;29;20043;-88
2022/01/23 09:12:05;;;;;;;17.70;11.77;;;;;;;7.85;100.00;100878.09;4921535;29;20019;-89
2022/01/23 09:14:52;;;;;;;;;;;;;;;8.03;100.00;100869.63;4928365;29;20047;-89
2022/01/23 09:17:25;;;;;;;18.48;11.77;;;;;;;8.08;100.00;100886.59;4959208;29;20380;-91
2022/01/23 09:20:04;;;;;;;17.90;11.60;;;;;;;8.19;100.00;100884.81;4921365;29;20038;-89
2022/01/23 09:22:33;;;;;;;19.55;12.43;;;;;;;8.23;100.00;100875.75;4912571;29;20075;-89
2022/01/23 09:25:18;;;;;;;20.77;12.68;;;;;;;8.18;100.00;100885.78;4920397;29;20095;-89
2022/01/23 09:27:48;;;;;;;22.15;13.48;;;;;;;8.07;100.00;100882.31;4920691;29;20113;-90
2022/01/23 09:30:19;;;;;;;18.10;12.50;;;;;;;8.07;100.00;100871.03;4934481;29;20036;-89
2022/01/23 09:32:47;;;;;;;19.15;12.57;;;;;;;8.13;100.00;100881.78;4913119;29;20104;-90
2022/01/23 09:35:14;;;;;;;19.25;12.77;;;;;;;8.22;100.00;100885.38;4912925;29;20442;-90
2022/01/23 09:37:41;;;;;;;17.35;13.02;;;;;;;8.20;100.00;100869.00;4910009;29;20398;-90
2022/01/23 09:40:10;;;;;;;21.50;14.10;;;;;;;8.33;100.00;100881.84;4925634;29;20035;-91
2022/01/23 09:42:54;;;;;;;21.30;14.60;;;;;;;8.26;100.00;100880.72;4928188;29;20035;-90
2022/01/23 09:45:25;;;;;;;19.75;14.00;;;;;;;8.28;100.00;100879.63;4927624;29;20055;-86
2022/01/23 09:48:33;;;;;;;22.27;14.60;;;;;;;8.37;100.00;100880.59;4913976;29;20035;-87
2022/01/23 09:51:00;;;;;;;22.15;15.13;;;;;;;8.14;100.00;100867.75;4942454;29;20027;-90
2022/01/23 09:53:31;;;;;;;23.85;16.05;;;;;;;8.20;100.00;100883.84;4924257;29;20031;-90
2022/01/23 09:56:05;;;;;;;25.42;16.70;;;;;;;8.00;100.00;100876.78;4946880;29;20068;-90
2022/01/23 09:58:32;;;;;;;29.92;18.17;;;;;;;7.88;100.00;100883.06;4924591;29;20031;-89
2022/01/23 10:00:59;;;;;;;27.20;18.65;;;;;;;7.95;100.00;100878.13;4902810;29;20063;-90
2022/01/23 10:03:25;;;;;;;27.95;17.35;;;;;;;8.08;100.00;100883.97;4945552;29;20038;-90
2022/01/23 10:05:55;;;;;;;28.80;18.73;;;;;;;8.08;100.00;100881.38;4922069;29;20036;-90
2022/01/23 10:08:28;;;;;;;30.63;19.52;;;;;;;7.83;100.00;100886.06;4926717;29;20499;-90
2022/01/23 10:10:56;;;;;;;36.73;22.07;;;;;;;7.79;100.00;100894.31;4928612;29;20052;-89
2022/01/23 10:13:24;;;;;;;37.65;24.45;;;;;;;7.77;100.00;100891.00;4949527;29;20031;-89
2022/01/23 10:15:51;;;;;;;37.35;24.25;;;;;;;7.69;100.00;100894.25;4938498;29;20067;-91
2022/01/23 10:18:18;;;;;;;37.75;23.27;;;;;;;7.84;100.00;100885.09;4951565;29;20059;-90
2022/01/23 10:20:46;;;;;;;39.65;24.55;;;;;;;7.95;100.00;100889.41;4929484;29;20035;-90
2022/01/23 10:23:13;;;;;;;41.88;26.23;;;;;;;7.99;100.00;100884.75;4926534;29;20027;-89
2022/01/23 10:25:42;;;;;;;42.38;25.40;;;;;;;8.02;100.00;100892.34;4956459;29;20038;-91
2022/01/23 10:28:16;;;;;;;44.90;27.23;;;;;;;7.98;100.00;100878.72;4939355;29;20556;-90
2022/01/23 10:30:47;;;;;;;45.55;27.17;;;;;;;8.04;100.00;100893.03;4911062;29;20063;-88
2022/01/23 10:33:21;;;;;;;41.20;25.70;;;;;;;8.00;100.00;100876.78;4918270;29;20486;-84
2022/01/23 10:36:00;;;;;;;46.85;27.90;;;;;;;8.04;100.00;100893.03;4904741;29;20117;-87
2022/01/23 10:38:46;;;;;;;41.05;25.77;;;;;;;8.02;100.00;100892.34;4942652;29;20385;-84
2022/01/23 10:47:32;;;;;;;39.92;25.05;;;;;;;7.63;100.00;100874.69;4920116;29;20027;-84
2022/01/23 10:50:01;;;;;;;41.03;23.83;;;;;;;7.64;100.00;100871.13;4926579;29;20126;-86
2022/01/23 10:52:35;;;;;;;39.30;22.98;;;;;;;7.71;100.00;100887.94;4946733;29;20103;-85
2022/01/23 10:55:31;;;;;;;36.45;22.58;;;;;;;7.84;100.00;100887.72;4916626;29;20338;-84
2022/01/23 10:58:06;;;;;;;32.38;20.17;;;;;;;7.40;100.00;100879.22;4923983;29;20070;-85
2022/01/23 11:00:44;;;;;;;30.98;19.63;;;;;;;7.26;100.00;100868.13;4907190;29;20401;-84
2022/01/23 11:03:21;;;;;;;27.85;17.67;;;;;;;7.25;100.00;100871.72;4924345;29;20028;-86
2022/01/23 11:05:50;;;;;;;32.53;19.73;;;;;;;7.74;100.00;100879.00;4939465;28;20074;-85
2022/01/23 11:08:30;;;;;;;27.02;17.73;;;;;;;7.97;100.00;100865.75;4917452;29;20573;-85
2022/01/23 11:10:59;;;;;;;30.05;17.55;;;;;;;8.11;100.00;100877.63;4921010;29;20064;-87
2022/01/23 11:19:28;;;;;;;22.95;14.25;;;;;;;8.27;100.00;100871.91;4928273;29;20028;-89
2022/01/23 11:21:58;;;;;;;20.48;13.18;;;;;;;8.19;100.00;100869.13;4928678;29;20042;-90
2022/01/23 11:24:38;;;;;;;20.55;12.55;;;;;;;8.13;100.00;100871.31;4915977;29;20028;-88
2022/01/23 11:27:04;;;;;;;19.48;12.45;;;;;;;7.98;100.00;100847.34;4928252;29;20203;-89
2022/01/23 11:29:31;;;;;;;20.33;13.30;;;;;;;8.03;100.00;100849.53;4890027;29;20051;-88
2022/01/23 11:31:58;;;;;;;19.00;12.88;;;;;;;7.82;100.00;100852.22;4902931;29;20052;-88
2022/01/23 11:34:26;;;;;;;18.70;12.65;;;;;;;7.72;100.00;100855.59;4899066;29;20035;-90
2022/01/23 11:36:52;;;;;;;19.92;13.10;;;;;;;7.76;100.00;100840.50;4895601;29;20063;-87
2022/01/23 11:39:42;;;;;;;20.70;12.93;;;;;;;7.82;100.00;100837.34;4898747;29;20122;-90
2022/01/23 11:56:24;;;;;;;22.83;14.90;;;;;;;7.91;100.00;100840.16;4894203;29;20035;-89
2022/01/23 11:58:52;;;;;;;75.65;30.25;;;;;;;8.00;100.00;100837.56;4923064;29;20545;-88
2022/01/23 12:01:19;;;;;;;107.47;45.70;;;;;;;8.17;100.00;100834.44;4912527;29;20039;-90
2022/01/23 12:07:17;;;;;;;23.65;13.07;;;;;;;7.73;100.00;100832.91;4932537;29;20446;-91
2022/01/23 12:10:11;;;;;;;17.23;11.35;;;;;;;7.72;100.00;100828.66;4932509;29;20031;-90
2022/01/23 12:12:45;;;;;;;19.63;12.52;;;;;;;7.68;100.00;100824.66;4925995;29;20054;-87
2022/01/23 12:18:30;;;;;;;19.27;12.13;;;;;;;7.68;100.00;100820.25;4924900;29;20087;-85
2022/01/23 12:20:56;;;;;;;19.92;12.75;;;;;;;7.85;100.00;100815.34;4922559;29;20485;-86
2022/01/23 12:23:23;;;;;;;18.13;12.07;;;;;;;7.96;100.00;100809.19;4954046;29;20117;-88
2022/01/23 12:25:54;;;;;;;18.45;12.23;;;;;;;7.95;100.00;100807.53;4923555;29;20127;-87
2022/01/23 12:28:32;;;;;;;21.15;12.73;;;;;;;7.82;100.00;100795.50;4936515;29;20035;-87
2022/01/23 12:31:16;;;;;;;19.42;12.07;;;;;;;7.93;100.00;100801.63;4935227;29;20027;-87
2022/01/23 12:33:42;;;;;;;20.38;11.93;;;;;;;7.93;100.00;100801.63;4951098;29;20524;-87
2022/01/23 12:36:20;;;;;;;18.15;11.52;;;;;;;8.12;100.00;100806.88;4931487;29;20031;-86
2022/01/23 12:38:49;;;;;;;17.33;11.73;;;;;;;7.99;100.00;100793.22;4950110;29;20023;-86
2022/01/23 12:41:16;;;;;;;18.33;11.02;;;;;;;8.03;100.00;100796.41;4943072;29;20051;-87
2022/01/23 12:43:42;;;;;;;16.05;11.05;;;;;;;7.87;100.00;100797.75;4917317;29;20438;-86
2022/01/23 12:46:10;;;;;;;16.42;10.27;;;;;;;7.83;100.00;100788.50;4950313;29;20059;-87
2022/01/23 12:48:39;;;;;;;16.70;10.45;;;;;;;7.69;100.00;100790.53;4929216;29;20027;-87
2022/01/23 12:51:17;;;;;;;17.10;10.65;;;;;;;7.77;100.00;100792.47;4929306;29;20032;-87
2022/01/23 12:53:46;;;;;;;17.45;11.45;;;;;;;7.81;100.00;100791.25;4943629;29;20027;-87
2022/01/23 12:56:13;;;;;;;17.65;11.07;;;;;;;7.92;100.00;100797.34;4946834;29;20118;-87
2022/01/23 12:58:50;;;;;;;16.17;10.82;;;;;;;7.90;100.00;100791.44;4925977;29;20031;-86
2022/01/23 13:01:19;;;;;;;16.52;10.68;;;;;;;7.86;100.00;100789.09;4912522;29;20066;-87
2022/01/23 13:04:16;;;;;;;15.60;10.43;;;;;;;7.83;100.00;100785.91;4931729;29;20035;-87
2022/01/23 13:06:57;;;;;;;16.70;10.57;;;;;;;7.77;100.00;100787.25;4920248;29;20066;-87
2022/01/23 13:09:48;;;;;;;18.27;11.90;;;;;;;7.76;100.00;100775.16;4944442;29;20123;-87
2022/01/23 13:12:30;;;;;;;19.67;11.98;;;;;;;7.79;100.00;100772.25;4915635;29;20119;-88
2022/01/23 13:34:30;;;;;;;17.33;10.57;;;;;;;7.19;100.00;100775.59;4930169;29;20035;-87
2022/01/23 13:36:59;;;;;;;15.65;10.40;;;;;;;6.96;100.00;100780.13;4929287;29;20038;-87
2022/01/23 13:39:29;;;;;;;17.30;9.55;;;;;;;6.69;100.00;100777.06;4897705;29;20486;-88
2022/01/23 13:59:27;;;;;;;13.85;8.52;;;;;;;7.06;100.00;100780.19;4926496;29;20039;-87
2022/01/23 14:04:29;;;;;;;;;;;;;;;7.17;100.00;100769.66;4931132;29;20040;-89
2022/01/23 14:06:55;;;;;;;12.23;8.07;;;;;;;7.26;100.00;100768.88;4897243;29;20498;-88
2022/01/23 14:09:24;;;;;;;14.50;8.40;;;;;;;7.41;100.00;100763.31;4898131;29;20122;-86
2022/01/23 14:11:50;;;;;;;12.68;8.63;;;;;;;7.49;100.00;100763.50;4926890;29;20058;-87
2022/01/23 14:14:23;;;;;;;11.88;8.00;;;;;;;7.60;100.00;100756.50;4922741;29;20031;-87
2022/01/23 14:16:50;;;;;;;15.27;9.20;;;;;;;7.49;100.00;100753.06;4942787;29;20050;-86
2022/01/23 14:19:23;;;;;;;13.88;8.55;;;;;;;7.67;100.00;100750.63;4926645;29;20039;-86
2022/01/23 14:21:59;;;;;;;14.40;8.93;;;;;;;7.28;100.00;100748.72;4946862;29;20091;-87
2022/01/23 14:24:35;;;;;;;14.05;8.90;;;;;;;7.51;100.00;100747.69;4940747;29;20043;-88
2022/01/23 14:27:06;;;;;;;15.20;9.07;;;;;;;7.23;100.00;100744.81;4924345;29;21373;-85
2022/01/23 14:29:53;;;;;;;13.30;8.18;;;;;;;6.92;100.00;100734.34;4926293;29;20035;-88
2022/01/23 14:32:47;;;;;;;13.70;7.93;;;;;;;7.05;100.00;100736.75;4931627;29;20043;-86
2022/01/23 14:35:17;;;;;;;13.70;8.43;;;;;;;7.23;100.00;100737.00;4925952;29;20101;-86
2022/01/23 14:37:45;;;;;;;12.55;8.63;;;;;;;7.13;100.00;100734.34;4926612;29;20402;-86
2022/01/23 14:40:10;;;;;;;19.02;9.05;;;;;;;7.17;100.00;100740.09;4945828;29;20096;-88
2022/01/23 14:42:36;;;;;;;14.18;8.75;;;;;;;7.07;100.00;100730.44;4942647;29;20121;-86
2022/01/23 14:45:09;;;;;;;13.45;8.60;;;;;;;7.04;100.00;100728.09;4931766;29;20035;-85
2022/01/23 14:47:39;;;;;;;13.93;8.85;;;;;;;6.89;100.00;100718.94;4928011;29;20478;-86
2022/01/23 14:50:12;;;;;;;13.35;8.68;;;;;;;6.87;100.00;100732.09;4908048;29;20549;-87
2022/01/23 14:52:40;;;;;;;16.50;10.30;;;;;;;6.94;100.00;100722.84;4928446;29;20032;-88
2022/01/23 14:55:08;;;;;;;14.50;9.18;;;;;;;7.00;100.00;100717.09;4946736;29;20091;-85
2022/01/23 14:57:35;;;;;;;15.15;10.00;;;;;;;6.91;100.00;100715.25;4928590;29;20043;-87
2022/01/23 15:00:07;;;;;;;13.93;9.15;;;;;;;6.89;100.00;100708.50;4947562;29;20049;-87
2022/01/23 15:02:33;;;;;;;17.92;10.10;;;;;;;6.95;100.00;100711.44;4944123;29;20038;-86
2022/01/23 15:05:02;;;;;;;16.92;9.90;;;;;;;6.98;100.00;100702.53;4918366;29;20035;-85
2022/01/23 15:07:37;;;;;;;16.92;10.82;;;;;;;6.96;100.00;100701.78;4924065;29;20028;-85
2022/01/23 15:10:05;;;;;;;29.33;16.15;;;;;;;7.01;100.00;100712.69;4923069;29;20517;-83
2022/01/23 15:12:31;;;;;;;26.40;16.55;;;;;;;6.85;100.00;100697.47;4927518;29;20098;-83
2022/01/23 15:14:57;;;;;;;26.15;15.50;;;;;;;6.59;100.00;100708.31;4945961;29;20541;-85